createdAt,value
2023-03-20T00:01:29.953Z,101312.84
2023-03-20T00:03:57.436Z,101320.13
2023-03-20T00:06:26.542Z,101315.38
2023-03-20T00:08:55.253Z,101328.72
2023-03-20T00:11:30.821Z,101328.06
2023-03-20T00:14:01.228Z,101325.34
2023-03-20T00:16:39.276Z,101322.84
2023-03-20T00:19:07.143Z,101332.28
2023-03-20T00:21:34.200Z,101335.31
2023-03-20T00:24:00.759Z,101332.59
2023-03-20T00:26:33.439Z,101335.34
2023-03-20T00:29:00.998Z,101335.34
2023-03-20T00:31:30.822Z,101344.47
2023-03-20T00:34:03.582Z,101342.59
2023-03-20T00:36:30.308Z,101347.50
2023-03-20T00:39:00.127Z,101352.25
2023-03-20T00:41:35.739Z,101347.69
2023-03-20T00:44:18.972Z,101350.38
2023-03-20T00:46:49.215Z,101358.16
2023-03-20T00:49:16.052Z,101356.47
2023-03-20T00:51:42.482Z,101358.66
2023-03-20T00:54:17.105Z,101363.22
2023-03-20T00:57:05.998Z,101358.84
2023-03-20T00:59:37.834Z,101347.69
2023-03-20T01:02:04.918Z,101359.19
2023-03-20T01:04:36.749Z,101361.22
2023-03-20T01:07:04.331Z,101368.47
2023-03-20T01:09:30.865Z,101378.25
2023-03-20T01:11:59.655Z,101370.84
2023-03-20T01:14:26.488Z,101363.72
2023-03-20T01:16:52.979Z,101361.03
2023-03-20T01:19:19.561Z,101359.16
2023-03-20T01:21:46.035Z,101356.31
2023-03-20T01:24:12.518Z,101364.59
2023-03-20T01:26:43.885Z,101352.75
2023-03-20T01:29:24.801Z,101348.19
2023-03-20T01:31:52.779Z,101359.84
2023-03-20T01:34:20.858Z,101354.13
2023-03-20T01:36:56.044Z,101367.28
2023-03-20T01:39:33.895Z,101357.47
2023-03-20T01:42:01.339Z,101355.13
2023-03-20T01:44:33.781Z,101350.72
2023-03-20T01:47:03.200Z,101347.34
2023-03-20T01:49:29.679Z,101343.28
2023-03-20T01:51:57.582Z,101336.88
2023-03-20T01:54:34.946Z,101327.75
2023-03-20T01:57:12.419Z,101341.63
2023-03-20T01:59:51.209Z,101329.09
2023-03-20T02:02:23.639Z,101333.81
2023-03-20T02:04:56.255Z,101337.53
2023-03-20T02:07:24.423Z,101340.75
2023-03-20T02:09:51.615Z,101336.19
2023-03-20T02:12:19.695Z,101344.13
2023-03-20T02:14:47.364Z,101347.69
2023-03-20T02:17:14.447Z,101335.88
2023-03-20T02:19:56.659Z,101350.03
2023-03-20T02:23:03.598Z,101352.09
2023-03-20T02:25:45.440Z,101355.78
2023-03-20T02:28:46.004Z,101351.75
2023-03-20T02:31:43.237Z,101351.25
2023-03-20T02:34:17.364Z,101357.97
2023-03-20T02:37:14.802Z,101360.38
2023-03-20T02:39:56.498Z,101341.63
2023-03-20T02:42:40.363Z,101338.75
2023-03-20T02:45:12.821Z,101330.94
2023-03-20T02:47:51.944Z,101334.84
2023-03-20T02:50:37.424Z,101343.97
2023-03-20T02:53:17.953Z,101346.34
2023-03-20T02:55:58.422Z,101331.47
2023-03-20T02:58:35.936Z,101322.53
2023-03-20T03:01:20.616Z,101322.53
2023-03-20T03:03:54.836Z,101330.44
2023-03-20T03:06:32.536Z,101341.06
2023-03-20T03:09:05.579Z,101354.72
2023-03-20T03:11:39.657Z,101355.41
2023-03-20T03:14:07.268Z,101352.03
2023-03-20T03:16:37.529Z,101351.00
2023-03-20T03:19:16.361Z,101359.09
2023-03-20T03:21:42.803Z,101354.03
2023-03-20T03:24:40.272Z,101350.00
2023-03-20T03:27:17.554Z,101340.84
2023-03-20T03:29:49.443Z,101342.56
2023-03-20T03:32:34.391Z,101355.56
2023-03-20T03:35:02.232Z,101358.13
2023-03-20T03:37:55.255Z,101364.16
2023-03-20T03:40:44.623Z,101353.53
2023-03-20T03:43:18.675Z,101330.59
2023-03-20T03:45:52.561Z,101317.44
2023-03-20T03:48:23.747Z,101324.38
2023-03-20T03:50:57.352Z,101332.63
2023-03-20T03:53:29.111Z,101341.59
2023-03-20T03:56:02.559Z,101343.25
2023-03-20T03:58:33.093Z,101344.94
2023-03-20T04:01:02.465Z,101351.00
2023-03-20T04:03:35.402Z,101342.88
2023-03-20T04:06:04.590Z,101344.56
2023-03-20T04:08:31.348Z,101357.75
2023-03-20T04:10:57.875Z,101370.00
2023-03-20T04:13:24.288Z,101369.66
2023-03-20T04:15:50.930Z,101364.81
2023-03-20T04:18:18.517Z,101364.28
2023-03-20T04:20:46.632Z,101367.50
2023-03-20T04:23:14.264Z,101359.72
2023-03-20T04:25:40.918Z,101364.13
2023-03-20T04:28:07.492Z,101368.31
2023-03-20T04:30:33.947Z,101369.84
2023-03-20T04:33:00.493Z,101358.72
2023-03-20T04:35:27.047Z,101362.06
2023-03-20T04:37:53.483Z,101364.50
2023-03-20T04:40:20.005Z,101356.25
2023-03-20T04:42:46.500Z,101363.19
2023-03-20T04:45:12.972Z,101355.91
2023-03-20T04:47:39.617Z,101349.97
2023-03-20T04:50:07.162Z,101343.47
2023-03-20T04:52:33.688Z,101331.66
2023-03-20T04:55:00.189Z,101337.84
2023-03-20T04:57:27.024Z,101338.31
2023-03-20T04:59:53.526Z,101336.69
2023-03-20T05:02:20.505Z,101333.66
2023-03-20T05:04:47.045Z,101339.09
2023-03-20T05:07:13.532Z,101343.97
2023-03-20T05:09:40.245Z,101342.44
2023-03-20T05:12:07.053Z,101331.81
2023-03-20T05:14:33.479Z,101336.34
2023-03-20T05:16:59.967Z,101339.38
2023-03-20T05:19:27.512Z,101336.69
2023-03-20T05:21:54.215Z,101320.13
2023-03-20T05:24:21.368Z,101326.53
2023-03-20T05:26:47.971Z,101323.31
2023-03-20T05:29:14.572Z,101329.03
2023-03-20T05:31:41.703Z,101327.19
2023-03-20T05:34:08.227Z,101325.44
2023-03-20T05:36:34.673Z,101332.88
2023-03-20T05:39:01.504Z,101328.47
2023-03-20T05:41:27.930Z,101327.47
2023-03-20T05:43:54.396Z,101329.34
2023-03-20T05:46:21.227Z,101322.78
2023-03-20T05:48:47.781Z,101339.47
2023-03-20T05:51:14.237Z,101327.78
2023-03-20T05:53:40.692Z,101337.59
2023-03-20T05:56:07.646Z,101337.09
2023-03-20T05:58:34.973Z,101343.19
2023-03-20T06:01:01.606Z,101337.28
2023-03-20T06:03:28.058Z,101346.72
2023-03-20T06:05:54.806Z,101348.75
2023-03-20T06:08:21.310Z,101339.16
2023-03-20T06:10:50.615Z,101339.81
2023-03-20T06:13:17.490Z,101350.66
2023-03-20T06:15:44.010Z,101349.81
2023-03-20T06:18:10.635Z,101361.78
2023-03-20T06:20:37.055Z,101353.84
2023-03-20T06:23:03.548Z,101357.56
2023-03-20T06:25:30.398Z,101345.59
2023-03-20T06:27:57.672Z,101347.53
2023-03-20T06:30:24.328Z,101347.88
2023-03-20T06:32:50.847Z,101348.22
2023-03-20T06:35:18.526Z,101295.28
2023-03-20T06:37:45.144Z,101351.09
2023-03-20T06:40:11.654Z,101353.09
2023-03-20T06:42:38.126Z,101349.09
2023-03-20T06:45:05.397Z,101350.94
2023-03-20T06:47:31.990Z,101344.03
2023-03-20T06:49:58.930Z,101340.50
2023-03-20T06:52:28.244Z,101346.94
2023-03-20T06:54:56.234Z,101356.75
2023-03-20T06:57:23.021Z,101355.75
2023-03-20T06:59:49.637Z,101356.44
2023-03-20T07:02:16.889Z,101362.66
2023-03-20T07:04:43.350Z,101363.50
2023-03-20T07:07:10.014Z,101345.91
2023-03-20T07:09:37.004Z,101372.81
2023-03-20T07:12:04.546Z,101374.66
2023-03-20T07:14:31.007Z,101374.66
2023-03-20T07:16:57.554Z,101385.81
2023-03-20T07:19:24.201Z,101395.28
2023-03-20T07:21:55.115Z,101400.69
2023-03-20T07:24:21.960Z,101407.44
2023-03-20T07:26:48.390Z,101417.59
2023-03-20T07:29:14.835Z,101415.91
2023-03-20T07:31:41.332Z,101413.56
2023-03-20T07:34:07.999Z,101414.75
2023-03-20T07:36:34.477Z,101421.34
2023-03-20T07:39:01.038Z,101421.69
2023-03-20T07:41:27.524Z,101425.41
2023-03-20T07:43:53.973Z,101432.16
2023-03-20T07:46:20.508Z,101432.16
2023-03-20T07:48:47.068Z,101430.47
2023-03-20T07:51:13.550Z,101427.94
2023-03-20T07:53:40.169Z,101427.78
2023-03-20T07:56:07.026Z,101421.03
2023-03-20T07:58:33.523Z,101425.22
2023-03-20T08:01:00.041Z,101430.16
2023-03-20T08:03:27.185Z,101433.88
2023-03-20T08:05:54.210Z,101442.63
2023-03-20T08:08:21.350Z,101440.97
2023-03-20T08:10:48.243Z,101430.81
2023-03-20T08:13:15.559Z,101445.38
2023-03-20T08:15:42.027Z,101451.13
2023-03-20T08:18:08.511Z,101450.09
2023-03-20T08:20:34.948Z,101444.00
2023-03-20T08:23:01.385Z,101446.22
2023-03-20T08:25:29.290Z,101446.38
2023-03-20T08:27:55.744Z,101445.72
2023-03-20T08:30:22.184Z,101444.38
2023-03-20T08:32:48.664Z,101454.66
2023-03-20T08:35:31.903Z,101453.66
2023-03-20T08:37:59.643Z,101447.06
2023-03-20T08:40:26.238Z,101452.47
2023-03-20T08:42:52.703Z,101444.84
2023-03-20T08:45:19.397Z,101454.16
2023-03-20T08:47:48.803Z,101446.88
2023-03-20T08:50:15.211Z,101448.38
2023-03-20T08:52:43.951Z,101449.75
2023-03-20T08:55:11.865Z,101449.56
2023-03-20T08:57:38.439Z,101452.44
2023-03-20T09:00:09.016Z,101458.53
2023-03-20T09:02:37.192Z,101458.19
2023-03-20T09:05:03.847Z,101453.28
2023-03-20T09:07:30.525Z,101457.84
2023-03-20T09:09:56.963Z,101458.69
2023-03-20T09:12:23.934Z,101458.00
2023-03-20T09:14:50.381Z,101457.44
2023-03-20T09:17:16.946Z,101457.78
2023-03-20T09:19:44.680Z,101458.44
2023-03-20T09:22:15.574Z,101458.94
2023-03-20T09:24:42.081Z,101455.22
2023-03-20T09:27:08.534Z,101450.19
2023-03-20T09:29:35.067Z,101460.13
2023-03-20T09:32:01.988Z,101444.56
2023-03-20T09:34:29.386Z,101457.75
2023-03-20T09:36:56.077Z,101456.03
2023-03-20T09:39:22.555Z,101453.31
2023-03-20T09:41:56.993Z,101461.84
2023-03-20T09:44:35.653Z,101460.63
2023-03-20T09:47:30.001Z,101456.66
2023-03-20T09:50:22.388Z,101458.03
2023-03-20T09:53:01.106Z,101455.28
2023-03-20T09:55:34.049Z,101448.13
2023-03-20T09:58:10.646Z,101451.81
2023-03-20T10:00:37.427Z,101453.88
2023-03-20T10:03:12.171Z,101450.13
2023-03-20T10:05:45.164Z,101464.66
2023-03-20T10:08:16.970Z,101464.91
2023-03-20T10:10:51.803Z,101455.56
2023-03-20T10:13:48.258Z,101460.13
2023-03-20T10:16:34.283Z,101456.25
2023-03-20T10:19:13.198Z,101454.81
2023-03-20T10:21:44.282Z,101450.72
2023-03-20T10:24:26.201Z,101452.16
2023-03-20T10:26:55.518Z,101459.59
2023-03-20T10:29:38.069Z,101446.38
2023-03-20T10:32:12.708Z,101457.28
2023-03-20T10:34:57.577Z,101455.28
2023-03-20T10:37:38.979Z,101455.72
2023-03-20T10:40:26.803Z,101452.41
2023-03-20T10:42:57.661Z,101450.53
2023-03-20T10:45:45.334Z,101453.94
2023-03-20T10:48:31.157Z,101454.28
2023-03-20T10:51:02.089Z,101448.19
2023-03-20T10:53:34.816Z,101454.69
2023-03-20T10:56:07.539Z,101444.22
2023-03-20T10:58:39.453Z,101438.03
2023-03-20T11:01:06.199Z,101444.69
2023-03-20T11:03:36.173Z,101434.81
2023-03-20T11:06:17.362Z,101434.81
2023-03-20T11:08:50.866Z,101435.84
2023-03-20T11:11:28.232Z,101439.25
2023-03-20T11:13:55.003Z,101439.72
2023-03-20T11:16:36.626Z,101435.63
2023-03-20T11:19:08.354Z,101439.03
2023-03-20T11:21:44.851Z,101428.53
2023-03-20T11:24:33.016Z,101438.16
2023-03-20T11:27:27.161Z,101432.63
2023-03-20T11:29:55.555Z,101424.09
2023-03-20T11:32:42.185Z,101422.22
2023-03-20T11:35:20.891Z,101424.09
2023-03-20T11:37:50.494Z,101415.50
2023-03-20T11:40:22.376Z,101420.56
2023-03-20T11:42:55.280Z,101409.28
2023-03-20T11:45:22.029Z,101414.69
2023-03-20T11:47:51.622Z,101404.19
2023-03-20T11:50:38.540Z,101402.88
2023-03-20T11:53:22.262Z,101401.63
2023-03-20T11:56:14.896Z,101399.06
2023-03-20T11:58:56.187Z,101403.72
2023-03-20T12:01:22.946Z,101398.94
2023-03-20T12:04:12.607Z,101393.34
2023-03-20T12:06:48.116Z,101393.50
2023-03-20T12:09:38.821Z,101396.03
2023-03-20T12:12:27.412Z,101395.50
2023-03-20T12:15:08.476Z,101394.38
2023-03-20T12:17:55.562Z,101390.16
2023-03-20T12:20:34.029Z,101387.78
2023-03-20T12:23:11.098Z,101389.25
2023-03-20T12:26:00.998Z,101380.38
2023-03-20T12:28:39.637Z,101381.34
2023-03-20T12:31:19.215Z,101381.00
2023-03-20T12:34:10.164Z,101376.78
2023-03-20T12:36:39.843Z,101371.97
2023-03-20T12:39:12.774Z,101371.91
2023-03-20T12:42:07.219Z,101372.81
2023-03-20T12:44:54.588Z,101353.00
2023-03-20T12:47:43.074Z,101360.63
2023-03-20T12:50:33.819Z,101357.47
2023-03-20T12:53:12.877Z,101364.44
2023-03-20T12:56:16.705Z,101352.56
2023-03-20T12:59:20.990Z,101331.53
2023-03-20T13:02:02.255Z,101353.78
2023-03-20T13:04:50.959Z,101359.81
2023-03-20T13:07:20.389Z,101354.72
2023-03-20T13:10:23.246Z,101344.47
2023-03-20T13:13:12.702Z,101347.28
2023-03-20T13:15:42.107Z,101346.50
2023-03-20T13:18:08.468Z,101353.91
2023-03-20T13:20:46.755Z,101352.09
2023-03-20T13:23:30.950Z,101349.44
2023-03-20T13:26:17.471Z,101347.69
2023-03-20T13:29:05.294Z,101343.53
2023-03-20T13:32:01.082Z,101340.22
2023-03-20T13:34:49.084Z,101339.44
2023-03-20T13:37:24.152Z,101341.22
2023-03-20T13:40:04.485Z,101333.28
2023-03-20T13:42:54.730Z,101332.25
2023-03-20T13:45:37.829Z,101326.94
2023-03-20T13:48:16.139Z,101320.47
2023-03-20T13:50:50.315Z,101311.41
2023-03-20T13:53:24.847Z,101319.91
2023-03-20T13:56:10.337Z,101325.81
2023-03-20T13:59:05.345Z,101320.97
2023-03-20T14:01:40.801Z,101315.53
2023-03-20T14:04:17.000Z,101308.94
2023-03-20T14:06:55.295Z,101305.91
2023-03-20T14:09:36.298Z,101313.88
2023-03-20T14:12:07.349Z,101305.97
2023-03-20T14:14:44.147Z,101309.06
2023-03-20T14:17:19.873Z,101307.75
2023-03-20T14:19:47.681Z,101300.25
2023-03-20T14:22:16.973Z,101313.19
2023-03-20T14:25:08.666Z,101307.91
2023-03-20T14:27:52.602Z,101303.13
2023-03-20T14:30:43.463Z,101313.75
2023-03-20T14:33:12.636Z,101299.69
2023-03-20T14:35:44.105Z,101301.38
2023-03-20T14:38:29.784Z,101300.91
2023-03-20T14:41:12.161Z,101299.31
2023-03-20T14:43:58.428Z,101297.47
2023-03-20T14:46:42.568Z,101308.50
2023-03-20T14:49:30.742Z,101289.75
2023-03-20T14:52:03.686Z,101291.19
2023-03-20T14:54:30.967Z,101287.53
2023-03-20T14:57:18.523Z,101281.44
2023-03-20T14:59:49.274Z,101282.84
2023-03-20T15:02:45.830Z,101283.88
2023-03-20T15:05:33.991Z,101279.09
2023-03-20T15:08:23.956Z,101279.56
2023-03-20T15:10:54.672Z,101277.06
2023-03-20T15:13:24.308Z,101280.88
2023-03-20T15:15:53.975Z,101277.72
2023-03-20T15:18:22.194Z,101277.78
2023-03-20T15:20:48.714Z,101279.88
2023-03-20T15:23:15.513Z,101275.25
2023-03-20T15:25:47.006Z,101277.34
2023-03-20T15:28:27.210Z,101268.72
2023-03-20T15:30:57.860Z,101261.47
2023-03-20T15:33:29.110Z,101237.19
2023-03-20T15:35:56.192Z,101256.25
2023-03-20T15:38:27.748Z,101263.22
2023-03-20T15:40:54.800Z,101261.81
2023-03-20T15:43:24.145Z,101256.44
2023-03-20T15:46:02.765Z,101251.31
2023-03-20T15:48:33.154Z,101253.72
2023-03-20T15:51:05.004Z,101239.69
2023-03-20T15:53:39.845Z,101241.97
2023-03-20T15:56:17.624Z,101243.25
2023-03-20T15:58:45.826Z,101244.59
2023-03-20T16:01:19.537Z,101243.75
2023-03-20T16:03:47.140Z,101241.88
2023-03-20T16:06:17.771Z,101236.81
2023-03-20T16:08:46.675Z,101237.44
2023-03-20T16:11:15.814Z,101238.78
2023-03-20T16:13:47.742Z,101241.59
2023-03-20T16:16:24.409Z,101234.19
2023-03-20T16:18:51.527Z,101232.34
2023-03-20T16:21:20.905Z,101229.44
2023-03-20T16:23:53.619Z,101224.84
2023-03-20T16:26:22.511Z,101226.34
2023-03-20T16:28:56.444Z,101220.13
2023-03-20T16:31:33.251Z,101221.06
2023-03-20T16:34:02.626Z,101201.41
2023-03-20T16:36:32.234Z,101209.31
2023-03-20T16:39:17.882Z,101205.31
2023-03-20T16:41:46.042Z,101205.03
2023-03-20T16:44:23.339Z,101197.75
2023-03-20T16:47:00.310Z,101207.13
2023-03-20T16:49:29.679Z,101203.56
2023-03-20T16:52:02.050Z,101207.03
2023-03-20T16:54:30.963Z,101210.13
2023-03-20T16:56:57.668Z,101219.53
2023-03-20T16:59:25.351Z,101210.00
2023-03-20T17:01:54.110Z,101207.94
2023-03-20T17:04:35.333Z,101210.41
2023-03-20T17:07:07.962Z,101215.91
2023-03-20T17:09:34.438Z,101215.72
2023-03-20T17:12:06.280Z,101210.41
2023-03-20T17:14:32.875Z,101204.06
2023-03-20T17:17:00.175Z,101212.84
2023-03-20T17:19:26.665Z,101219.50
2023-03-20T17:21:53.280Z,101215.47
2023-03-20T17:24:19.807Z,101216.97
2023-03-20T17:26:53.869Z,101220.25
2023-03-20T17:29:20.347Z,101219.78
2023-03-20T17:31:46.878Z,101217.81
2023-03-20T17:34:14.928Z,101221.84
2023-03-20T17:36:41.631Z,101211.72
2023-03-20T17:39:17.204Z,101229.41
2023-03-20T17:41:43.676Z,101231.66
2023-03-20T17:44:10.446Z,101233.91
2023-03-20T17:46:53.900Z,101248.50
2023-03-20T17:49:26.928Z,101234.94
2023-03-20T17:51:54.380Z,101244.84
2023-03-20T17:54:21.434Z,101235.75
2023-03-20T17:56:47.981Z,101246.25
2023-03-20T17:59:14.846Z,101256.09
2023-03-20T18:01:42.195Z,101249.53
2023-03-20T18:04:08.647Z,101252.31
2023-03-20T18:06:35.318Z,101253.19
2023-03-20T18:09:02.119Z,101252.16
2023-03-20T18:11:29.302Z,101248.72
2023-03-20T18:13:55.826Z,101256.47
2023-03-20T18:16:26.781Z,101243.47
2023-03-20T18:18:54.305Z,101247.31
2023-03-20T18:21:20.763Z,101241.72
2023-03-20T18:23:47.380Z,101243.56
2023-03-20T18:26:23.894Z,101249.66
2023-03-20T18:28:51.750Z,101249.53
2023-03-20T18:31:19.001Z,101249.72
2023-03-20T18:33:50.137Z,101245.81
2023-03-20T18:36:22.767Z,101249.34
2023-03-20T18:38:50.653Z,101244.47
2023-03-20T18:41:17.282Z,101248.41
2023-03-20T18:43:43.812Z,101238.22
2023-03-20T18:46:18.389Z,101239.19
2023-03-20T18:48:45.777Z,101248.34
2023-03-20T18:51:13.326Z,101232.44
2023-03-20T18:53:43.134Z,101249.22
2023-03-20T18:56:17.411Z,101241.81
2023-03-20T18:58:45.036Z,101241.88
2023-03-20T19:01:12.818Z,101238.81
2023-03-20T19:03:41.388Z,101249.16
2023-03-20T19:06:15.338Z,101241.19
2023-03-20T19:08:42.541Z,101243.06
2023-03-20T19:11:17.315Z,101246.78
2023-03-20T19:13:49.259Z,101221.03
2023-03-20T19:16:18.485Z,101253.91
2023-03-20T19:18:45.096Z,101243.06
2023-03-20T19:21:11.581Z,101241.34
2023-03-20T19:23:38.096Z,101245.47
2023-03-20T19:26:06.433Z,101247.13
2023-03-20T19:28:40.653Z,101240.41
2023-03-20T19:31:09.483Z,101237.69
2023-03-20T19:33:37.293Z,101233.31
2023-03-20T19:36:04.920Z,101231.56
2023-03-20T19:38:32.958Z,101241.72
2023-03-20T19:41:00.202Z,101227.72
2023-03-20T19:43:28.849Z,101231.56
2023-03-20T19:45:58.589Z,101218.72
2023-03-20T19:48:46.389Z,101221.75
2023-03-20T19:51:28.298Z,101218.66
2023-03-20T19:53:56.196Z,101229.38
2023-03-20T19:56:23.537Z,101218.00
2023-03-20T19:58:50.439Z,101226.66
2023-03-20T20:01:20.147Z,101223.78
2023-03-20T20:03:48.024Z,101216.19
2023-03-20T20:06:15.950Z,101217.84
2023-03-20T20:08:48.516Z,101221.38
2023-03-20T20:11:17.284Z,101230.88
2023-03-20T20:16:32.423Z,101226.81
2023-03-20T20:18:58.982Z,101228.34
2023-03-20T20:22:13.329Z,101210.53
2023-03-20T20:24:12.642Z,101221.88
2023-03-20T20:26:47.913Z,101224.78
2023-03-20T20:29:20.190Z,101204.94
2023-03-20T20:31:46.716Z,101230.50
2023-03-20T20:37:49.038Z,101218.72
2023-03-20T20:39:47.929Z,101216.94
2023-03-20T20:42:17.009Z,101219.09
2023-03-20T20:44:43.795Z,101199.72
2023-03-20T20:47:10.432Z,101214.09
2023-03-20T20:49:37.029Z,101216.16
2023-03-20T20:52:03.788Z,101204.31
2023-03-20T20:54:30.547Z,101207.56
2023-03-20T20:56:56.991Z,101205.03
2023-03-20T20:59:23.601Z,101207.06
2023-03-20T21:01:50.615Z,101208.88
2023-03-20T21:04:17.110Z,101199.78
2023-03-20T21:07:07.376Z,101207.06
2023-03-20T21:09:30.296Z,101206.72
2023-03-20T21:11:56.767Z,101210.44
2023-03-20T21:14:23.303Z,101203.34
2023-03-20T21:16:49.795Z,101201.19
2023-03-20T21:19:16.287Z,101210.34
2023-03-20T21:21:42.796Z,101212.84
2023-03-20T21:24:30.550Z,101210.53
2023-03-20T21:26:58.738Z,101218.25
2023-03-20T21:29:25.729Z,101219.28
2023-03-20T21:31:52.570Z,101189.78
2023-03-20T21:34:19.252Z,101222.69
2023-03-20T21:36:48.928Z,101218.25
2023-03-20T21:39:16.824Z,101213.25
2023-03-20T21:41:44.273Z,101217.44
2023-03-20T21:44:16.781Z,101218.25
2023-03-20T21:47:50.805Z,101218.56
2023-03-20T21:50:23.631Z,101214.19
2023-03-20T21:56:05.806Z,101200.09
2023-03-20T22:04:31.968Z,101210.94
2023-03-20T22:07:09.600Z,101208.78
2023-03-20T22:12:52.840Z,101207.16
2023-03-20T22:15:18.321Z,101212.56
2023-03-20T22:18:08.263Z,101213.53
2023-03-20T22:31:55.361Z,101216.59
2023-03-20T22:34:39.782Z,101219.97
2023-03-20T22:45:11.779Z,101211.94
2023-03-20T22:47:38.540Z,101211.13
2023-03-20T22:50:05.511Z,101213.69
2023-03-20T22:52:47.624Z,101210.13
2023-03-20T22:55:16.397Z,101204.44
2023-03-20T22:57:52.796Z,101202.75
2023-03-20T23:00:26.439Z,101199.19
2023-03-20T23:02:54.995Z,101190.22
2023-03-20T23:05:23.922Z,101191.94
2023-03-20T23:07:53.112Z,101199.00
2023-03-20T23:10:19.631Z,101191.94
2023-03-20T23:12:46.032Z,101190.72
2023-03-20T23:15:12.516Z,101192.66
2023-03-20T23:17:38.947Z,101190.97
2023-03-20T23:20:12.610Z,101190.13
2023-03-20T23:22:40.729Z,101189.22
2023-03-20T23:25:23.825Z,101181.91
2023-03-20T23:27:54.761Z,101190.22
2023-03-20T23:30:23.403Z,101184.44
2023-03-20T23:32:51.734Z,101176.66
2023-03-20T23:35:18.579Z,101180.72
2023-03-20T23:37:45.205Z,101178.66
2023-03-20T23:40:12.118Z,101179.97
2023-03-20T23:42:38.569Z,101175.59
2023-03-20T23:45:19.195Z,101170.31
2023-03-20T23:47:46.482Z,101163.34
2023-03-20T23:50:20.559Z,101164.28
2023-03-20T23:52:59.177Z,101156.63
2023-03-20T23:55:30.331Z,101154.59
2023-03-20T23:57:56.812Z,101148.59
